Acushnet, MA

2:41 AM EDT on August 28, 2014 (GMT -0400)
Pine Hill Acres | Change Station
CLOSE
Current Station
Personal Weather Station
Location: New Bedford, MA
Elevation: 99 ft
Nearby Weather Stations
Active Advisory: High Surf Advisory

Elev 99 ft 41.71 °N, 70.95 °W | Updated 1 second ago

Rain
Rain
67.8 °F
Feels Like 67.8 °F
N
0.0
Wind Variable Wind from West
Gusts 0.0 mph

Today
High -- | Low -- °F
--% Chance of Precip.
Yesterday
High -- | Low -- °F
Precip. -- in
6:05 AM 7:23 PM
Waxing Crescent, 6% visible
Pressure 29.81 in
Visibility 10.0 miles
Clouds Scattered Clouds 4600 ft
Mostly Cloudy 6000 ft
Overcast 10000 ft
Dew Point 65 °F
Humidity 92%
Rainfall 0.00 in
Snow Depth Not available.
UV 0 out of 12
Pollen 8.60 out of 12
PM2.5 Good
Flu Activity Not available.
METAR KEWB 280553Z AUTO 20004KT 10SM SCT046 BKN060 OVC100 21/18 A2981 RMK AO2 SLP095 T02060178 10217 20194 57020

More Conditions Fewer Conditions

Pressure 29.81 in
Visibility 10.0 miles
Clouds Scattered Clouds 4600 ft
Mostly Cloudy 6000 ft
Overcast 10000 ft
Dew Point 65 °F
Humidity 92%
Rainfall 0.00 in
Snow Depth Not available.
UV 0 out of 12
Pollen 8.60 out of 12
PM2.5 Good
Flu Activity Not available.
METAR KEWB 280553Z AUTO 20004KT 10SM SCT046 BKN060 OVC100 21/18 A2981 RMK AO2 SLP095 T02060178 10217 20194 57020

More Conditions Fewer Conditions

10-Day Weather Forecast

Almanac

Astronomy

Aug. 28, 2014 Rise Set
Actual Time 6:05 AM EDT 7:23 PM EDT
Civil Twilight 5:36 AM EDT 7:52 PM EDT
Nautical Twilight 5:01 AM EDT 8:26 PM EDT
Astronomical Twilight 4:25 AM EDT 9:03 PM EDT
Moon 8:57 AM EDT 8:42 PM EDT
Length of Visible Light 14h 15m
Length of Day
13h 18m
Tomorrow will be 2m 39s shorter.
Waxing Crescent, 6% of the Moon is Illuminated
Today
Waxing Crescent
Sep 2
First Quarter
Sep 8
Full
Sep 15
Last Quarter
Sep 24
New

Today's Extremes

State Highs State Lows

Community

WunderPhotos

Upload Photos

1,747,912 photos uploaded!

Nearby

Air Quality

  Air Quality AQ Index Pollutant
Yesterday Good
OZONE
Yesterday Good
PM2.5
Current Good
PM2.5
Thursday Good
PM2.5
Thursday Good
OZONE

Snow Depth

Station Depth Elevation
No new snow has been reported.

Earthquake Activity

City Distance Mag. Time & Date
No recent earthquake activity has been reported nearby.
Minimum magnitude displayed is 2.5.

Coastal Water Temperatures

Place Temperature
Woods Hole, MA 71.1 °F
Fall River, MA 73.9 °F
Newport, RI 71.1 °F

Nearby Weather Stations